»·PEaware :: N24475 KW36-KBLI

N24475 :: KW36-KBLI

FLIGHT INFORMATION

Flight Status: Arrived
Operator: Privately registered:
United States
More flights under this callsign
Pilot: Alan J. (5709)
Aircraft: PILATUS PC-6A/B/C TURBO PORTER
(PC6T)
More flights by this aircraft type
Origin: KW36
Destination: KBLI Bellingham Intl
United States
More flights between these airports :: More routes between these airports
Route: PAE V23 ACORD
File this flight plan on PilotEdge
Remarks:
Altitude:
(Current/Filed)
6,000ft
Speed:
(Current/Filed)
120kts
Departed: 25-Jun-20 12:36 PM
Arrived: 25-Jun-20 01:34 PM
Distance/Time
Traveled:
Not Available
Distance/Time
To Go:
Arrived

Flight Plot

Page will automatically refresh every two minutes.

Flight plan parsing failed; only flown route is shown


Map Options




Map Legend


Flown Route
Filed Route
Departure Airport
Arrival Airport
Navaid (VOR, NDB)
Fix

Horizontal Profiles

Position Reports

Time Latitude Longitude Heading Altitude Ground
Speed
25-Jun-20 12:30 47.500277 -122.217697 2 33ft 0kts
25-Jun-20 12:31 47.500304 -122.217695 2 33ft 0kts
25-Jun-20 12:32 47.500307 -122.217695 2 33ft 0kts
25-Jun-20 12:33 47.501513 -122.217718 323 25ft 9kts
25-Jun-20 12:34 47.502234 -122.219237 77 25ft 6kts
25-Jun-20 12:35 47.504109 -122.195315 96 495ft 80kts
25-Jun-20 12:36 47.520906 -122.186755 353 1368ft 75kts
25-Jun-20 12:37 47.541616 -122.190357 350 2421ft 76kts
25-Jun-20 12:38 47.565490 -122.196049 349 3236ft 94kts
25-Jun-20 12:39 47.591799 -122.202746 349 3964ft 97kts
25-Jun-20 12:40 47.618948 -122.209080 350 4676ft 99kts
25-Jun-20 12:41 47.646694 -122.215589 350 5404ft 102kts
25-Jun-20 12:42 47.675129 -122.222334 350 6046ft 109kts
25-Jun-20 12:43 47.707699 -122.229977 351 6031ft 120kts
25-Jun-20 12:44 47.741539 -122.237857 351 6029ft 123kts
25-Jun-20 12:45 47.775449 -122.245715 351 6026ft 123kts
25-Jun-20 12:46 47.809268 -122.253533 351 6027ft 123kts
25-Jun-20 12:47 47.843269 -122.261386 351 6029ft 123kts
25-Jun-20 12:48 47.877032 -122.269177 351 6038ft 123kts
25-Jun-20 12:49 47.910263 -122.277364 350 6032ft 118kts
25-Jun-20 12:50 47.943297 -122.286148 349 6048ft 122kts
25-Jun-20 12:51 47.976354 -122.295616 349 6030ft 119kts
25-Jun-20 12:52 48.008731 -122.304897 349 6030ft 118kts
25-Jun-20 12:53 48.041286 -122.314123 349 6026ft 118kts
25-Jun-20 12:54 48.073541 -122.323228 349 6025ft 118kts
25-Jun-20 12:55 48.105937 -122.332366 349 6025ft 118kts
25-Jun-20 12:56 48.138656 -122.341727 348 6032ft 120kts
25-Jun-20 12:57 48.171400 -122.351293 349 6025ft 119kts
25-Jun-20 12:58 48.203893 -122.360762 349 6025ft 119kts
25-Jun-20 12:59 48.236462 -122.370274 348 6025ft 119kts
25-Jun-20 13:00 48.269850 -122.380057 349 6024ft 124kts
25-Jun-20 13:01 48.303870 -122.389997 349 6020ft 124kts
25-Jun-20 13:02 48.337469 -122.399873 348 6018ft 122kts
25-Jun-20 13:03 48.370767 -122.409657 348 6030ft 121kts
25-Jun-20 13:04 48.403645 -122.419347 348 6019ft 119kts
25-Jun-20 13:05 48.437052 -122.429159 348 6031ft 124kts
25-Jun-20 13:06 48.471221 -122.439226 348 6027ft 125kts
25-Jun-20 13:07 48.504737 -122.449140 348 6012ft 120kts
25-Jun-20 13:08 48.537637 -122.458849 348 6015ft 120kts
25-Jun-20 13:09 48.570507 -122.468530 348 6017ft 120kts
25-Jun-20 13:10 48.603250 -122.478113 348 6030ft 120kts
25-Jun-20 13:11 48.636538 -122.484311 353 6031ft 120kts
25-Jun-20 13:12 48.670289 -122.489395 353 6036ft 122kts
25-Jun-20 13:13 48.703959 -122.494442 353 6024ft 121kts
25-Jun-20 13:14 48.738475 -122.499739 353 6027ft 126kts
25-Jun-20 13:15 48.772990 -122.504973 353 6029ft 125kts
25-Jun-20 13:16 48.808016 -122.510225 353 6024ft 127kts
25-Jun-20 13:17 48.842531 -122.515347 353 6011ft 122kts
25-Jun-20 13:19 48.876450 -122.520338 353 6011ft 122kts
25-Jun-20 13:20 48.910387 -122.525284 353 6013ft 122kts
25-Jun-20 13:21 48.937189 -122.529145 353 5682ft 126kts
25-Jun-20 13:22 48.965003 -122.552863 309 4887ft 117kts
25-Jun-20 13:23 48.990691 -122.579777 354 3972ft 119kts
25-Jun-20 13:24 49.023813 -122.581412 24 2962ft 120kts
25-Jun-20 13:25 49.022160 -122.540478 170 2002ft 114kts
25-Jun-20 13:26 48.993888 -122.538013 179 2013ft 98kts
25-Jun-20 13:27 48.966167 -122.536602 180 2022ft 100kts
25-Jun-20 13:28 48.938684 -122.535854 181 1993ft 97kts
25-Jun-20 13:29 48.910807 -122.536705 182 2017ft 101kts
25-Jun-20 13:30 48.882717 -122.537646 183 2038ft 98kts
25-Jun-20 13:31 48.856518 -122.537603 180 1444ft 94kts
25-Jun-20 13:32 48.832288 -122.537605 182 874ft 80kts
25-Jun-20 13:33 48.809928 -122.537555 179 382ft 80kts
25-Jun-20 13:34 48.792215 -122.537533 179 180ft 20kts
25-Jun-20 13:35 48.792377 -122.535391 36 180ft 12kts
25-Jun-20 13:36 48.792275 -122.534517 127 180ft 0kts
25-Jun-20 13:36 48.792275 -122.534517 127 180ft 0kts

Navigation Log

Ident Type
Flight plan parsing failed, navigation log unavailable